createdAt,value
2023-04-16T00:00:01.117Z,29.60
2023-04-16T00:01:01.193Z,29.00
2023-04-16T00:02:01.129Z,27.90
2023-04-16T00:03:01.169Z,28.40
2023-04-16T00:04:01.375Z,28.80
2023-04-16T00:05:02.085Z,27.90
2023-04-16T00:06:01.016Z,30.60
2023-04-16T00:07:01.963Z,35.20
2023-04-16T00:08:02.875Z,34.20
2023-04-16T00:09:01.957Z,28.60
2023-04-16T00:10:00.924Z,29.10
2023-04-16T00:11:00.970Z,25.90
2023-04-16T00:12:00.961Z,31.50
2023-04-16T00:13:00.960Z,30.70
2023-04-16T00:14:01.836Z,31.80
2023-04-16T00:15:01.601Z,31.50
2023-04-16T00:16:01.874Z,33.80
2023-04-16T00:17:01.938Z,30.70
2023-04-16T00:18:01.800Z,30.30
2023-04-16T00:19:01.768Z,32.60
2023-04-16T00:20:00.820Z,29.30
2023-04-16T00:21:00.811Z,32.40
2023-04-16T00:22:00.871Z,28.40
2023-04-16T00:23:02.016Z,29.30
2023-04-16T00:24:01.781Z,33.20
2023-04-16T00:25:01.659Z,28.20
2023-04-16T00:26:00.745Z,32.40
2023-04-16T00:27:01.688Z,33.60
2023-04-16T00:28:00.709Z,31.40
2023-04-16T00:29:00.714Z,27.80
2023-04-16T00:30:02.574Z,30.40
2023-04-16T00:31:00.716Z,31.20
2023-04-16T00:32:01.625Z,27.10
2023-04-16T00:33:01.714Z,28.50
2023-04-16T00:34:01.597Z,31.30
2023-04-16T00:35:00.638Z,35.60
2023-04-16T00:36:02.548Z,27.80
2023-04-16T00:37:00.597Z,28.80
2023-04-16T00:38:01.550Z,29.10
2023-04-16T00:39:01.536Z,30.30
2023-04-16T00:40:00.552Z,31.40
2023-04-16T00:41:01.533Z,30.20
2023-04-16T00:42:01.446Z,33.60
2023-04-16T00:43:00.495Z,38.70
2023-04-16T00:44:01.480Z,31.50
2023-04-16T00:45:00.511Z,32.90
2023-04-16T00:46:00.495Z,30.00
2023-04-16T00:47:02.383Z,31.80
2023-04-16T00:48:00.735Z,29.50
2023-04-16T00:49:00.485Z,33.80
2023-04-16T00:50:00.397Z,33.10
2023-04-16T00:51:00.386Z,30.60
2023-04-16T00:52:00.398Z,28.60
2023-04-16T00:53:01.301Z,32.30
2023-04-16T00:54:01.336Z,34.60
2023-04-16T00:55:00.401Z,31.40
2023-04-16T00:56:00.401Z,32.50
2023-04-16T00:57:00.317Z,30.50
2023-04-16T00:58:01.253Z,34.60
2023-04-16T00:59:01.232Z,32.90
2023-04-16T01:00:01.239Z,31.50
2023-04-16T01:01:01.231Z,30.30
2023-04-16T01:02:00.407Z,36.70
2023-04-16T01:03:01.472Z,27.80
2023-04-16T01:04:01.226Z,29.40
2023-04-16T01:05:01.197Z,28.10
2023-04-16T01:06:00.205Z,35.00
2023-04-16T01:07:00.232Z,27.00
2023-04-16T01:08:01.152Z,31.30
2023-04-16T01:09:01.123Z,28.60
2023-04-16T01:10:00.219Z,28.30
2023-04-16T01:11:00.172Z,32.10
2023-04-16T01:12:00.178Z,30.90
2023-04-16T01:13:01.076Z,25.50
2023-04-16T01:14:02.001Z,27.10
2023-04-16T01:15:00.126Z,29.30
2023-04-16T01:16:01.034Z,26.70
2023-04-16T01:17:00.112Z,30.10
2023-04-16T01:18:01.066Z,28.20
2023-04-16T01:19:00.979Z,28.40
2023-04-16T01:20:00.996Z,30.60
2023-04-16T01:21:00.019Z,28.10
2023-04-16T01:21:59.979Z,30.20
2023-04-16T01:23:00.023Z,28.20
2023-04-16T01:24:00.940Z,27.80
2023-04-16T01:25:00.957Z,27.40
2023-04-16T01:26:00.913Z,32.00
2023-04-16T01:27:00.926Z,28.00
2023-04-16T01:27:59.926Z,31.10
2023-04-16T01:29:00.915Z,32.90
2023-04-16T01:29:59.895Z,27.90
2023-04-16T01:31:00.855Z,26.60
2023-04-16T01:32:00.810Z,28.70
2023-04-16T01:33:00.046Z,27.90
2023-04-16T01:33:59.883Z,28.90
2023-04-16T01:35:00.788Z,25.90
2023-04-16T01:36:01.726Z,25.90
2023-04-16T01:36:59.812Z,30.00
2023-04-16T01:38:00.745Z,27.80
2023-04-16T01:38:59.787Z,27.90
2023-04-16T01:39:59.816Z,28.30
2023-04-16T01:40:59.805Z,26.70
2023-04-16T01:42:00.710Z,29.60
2023-04-16T01:43:00.699Z,28.40
2023-04-16T01:43:59.722Z,29.10
2023-04-16T01:45:00.672Z,28.20
2023-04-16T01:45:59.703Z,28.20
2023-04-16T01:47:00.677Z,29.40
2023-04-16T01:48:00.698Z,26.50
2023-04-16T01:49:00.621Z,30.20
2023-04-16T01:50:00.651Z,30.80
2023-04-16T01:50:59.634Z,31.20
2023-04-16T01:52:00.560Z,29.60
2023-04-16T01:53:00.602Z,28.20
2023-04-16T01:53:59.580Z,28.70
2023-04-16T01:54:59.621Z,30.10
2023-04-16T01:56:00.535Z,26.50
2023-04-16T01:57:00.521Z,26.70
2023-04-16T01:58:00.471Z,26.60
2023-04-16T01:59:00.508Z,25.20
2023-04-16T01:59:59.519Z,28.90
2023-04-16T02:01:00.619Z,24.80
2023-04-16T02:01:59.540Z,25.60
2023-04-16T02:03:00.555Z,28.30
2023-04-16T02:03:59.571Z,25.70
2023-04-16T02:04:59.467Z,27.60
2023-04-16T02:06:00.428Z,28.60
2023-04-16T02:07:00.405Z,25.30
2023-04-16T02:08:00.423Z,29.90
2023-04-16T02:09:00.339Z,27.00
2023-04-16T02:09:59.400Z,27.50
2023-04-16T02:10:59.370Z,27.90
2023-04-16T02:11:59.373Z,26.90
2023-04-16T02:12:59.454Z,27.20
2023-04-16T02:14:00.347Z,28.70
2023-04-16T02:15:00.249Z,28.00
2023-04-16T02:16:00.294Z,27.40
2023-04-16T02:17:00.281Z,25.50
2023-04-16T02:17:59.308Z,25.70
2023-04-16T02:18:59.273Z,25.40
2023-04-16T02:20:00.194Z,25.90
2023-04-16T02:20:59.226Z,29.40
2023-04-16T02:22:00.199Z,25.50
2023-04-16T02:22:59.282Z,24.30
2023-04-16T02:23:59.190Z,29.60
2023-04-16T02:24:59.224Z,26.30
2023-04-16T02:26:00.151Z,30.10
2023-04-16T02:26:59.184Z,27.40
2023-04-16T02:27:59.165Z,29.30
2023-04-16T02:28:59.157Z,28.10
2023-04-16T02:30:00.170Z,27.20
2023-04-16T02:31:00.076Z,26.20
2023-04-16T02:32:00.138Z,25.90
2023-04-16T02:33:00.228Z,28.60
2023-04-16T02:33:59.074Z,24.50
2023-04-16T02:35:00.035Z,25.80
2023-04-16T02:35:59.061Z,25.90
2023-04-16T02:37:00.936Z,25.80
2023-04-16T02:37:59.032Z,27.80
2023-04-16T02:38:59.975Z,25.10
2023-04-16T02:39:59.016Z,27.80
2023-04-16T02:40:59.935Z,26.50
2023-04-16T02:41:59.906Z,25.30
2023-04-16T02:42:58.960Z,27.00
2023-04-16T02:43:59.904Z,26.10
2023-04-16T02:44:59.930Z,25.90
2023-04-16T02:45:58.971Z,27.30
2023-04-16T02:47:00.837Z,24.90
2023-04-16T02:48:00.033Z,25.60
2023-04-16T02:48:58.893Z,27.40
2023-04-16T02:49:58.909Z,26.70
2023-04-16T02:50:58.890Z,25.40
2023-04-16T02:52:00.745Z,25.30
2023-04-16T02:52:58.829Z,30.60
2023-04-16T02:53:58.804Z,28.10
2023-04-16T02:54:58.808Z,33.10
2023-04-16T02:55:59.775Z,33.50
2023-04-16T02:56:59.705Z,32.60
2023-04-16T02:57:58.792Z,29.20
2023-04-16T02:58:58.783Z,29.40
2023-04-16T02:59:58.753Z,34.60
2023-04-16T03:00:58.815Z,34.10
2023-04-16T03:01:58.789Z,29.80
2023-04-16T03:02:59.706Z,32.70
2023-04-16T03:03:59.812Z,31.40
2023-04-16T03:04:58.684Z,29.60
2023-04-16T03:05:58.664Z,33.30
2023-04-16T03:06:59.634Z,36.10
2023-04-16T03:07:59.576Z,33.80
2023-04-16T03:08:58.632Z,33.90
2023-04-16T03:09:59.561Z,36.70
2023-04-16T03:10:58.628Z,35.10
2023-04-16T03:11:58.601Z,31.20
2023-04-16T03:12:58.592Z,33.70
2023-04-16T03:13:59.518Z,30.90
2023-04-16T03:14:59.532Z,32.70
2023-04-16T03:15:59.598Z,29.90
2023-04-16T03:16:58.565Z,36.90
2023-04-16T03:17:59.529Z,35.80
2023-04-16T03:18:59.463Z,35.90
2023-04-16T03:19:59.455Z,34.60
2023-04-16T03:20:58.474Z,40.20
2023-04-16T03:21:58.471Z,35.70
2023-04-16T03:22:58.465Z,36.50
2023-04-16T03:24:00.357Z,32.30
2023-04-16T03:24:59.397Z,33.60
2023-04-16T03:25:58.426Z,35.80
2023-04-16T03:26:59.382Z,36.90
2023-04-16T03:27:58.404Z,31.80
2023-04-16T03:29:00.287Z,32.00
2023-04-16T03:29:58.354Z,29.10
2023-04-16T03:30:58.486Z,34.00
2023-04-16T03:31:58.364Z,30.90
2023-04-16T03:32:58.410Z,35.50
2023-04-16T03:33:59.304Z,42.60
2023-04-16T03:34:59.221Z,34.80
2023-04-16T03:35:59.246Z,41.40
2023-04-16T03:36:59.258Z,34.30
2023-04-16T03:37:58.273Z,32.60
2023-04-16T03:38:59.197Z,34.40
2023-04-16T03:39:58.219Z,32.50
2023-04-16T03:41:00.192Z,37.60
2023-04-16T03:41:58.218Z,34.20
2023-04-16T03:42:58.225Z,29.50
2023-04-16T03:43:59.152Z,33.10
2023-04-16T03:44:58.170Z,31.30
2023-04-16T03:45:58.212Z,33.00
2023-04-16T03:47:00.046Z,29.10
2023-04-16T03:47:58.164Z,28.50
2023-04-16T03:48:58.131Z,28.60
2023-04-16T03:49:58.108Z,30.00
2023-04-16T03:50:58.103Z,29.00
2023-04-16T03:51:59.030Z,29.60
2023-04-16T03:52:59.022Z,29.90
2023-04-16T03:53:58.074Z,28.30
2023-04-16T03:54:58.097Z,31.10
2023-04-16T03:55:58.060Z,29.80
2023-04-16T03:56:58.940Z,27.60
2023-04-16T03:57:58.966Z,33.80
2023-04-16T03:58:57.975Z,31.30
2023-04-16T03:59:57.973Z,26.50
2023-04-16T04:00:58.960Z,25.60
2023-04-16T04:01:58.032Z,29.20
2023-04-16T04:02:59.076Z,26.60
2023-04-16T04:03:58.176Z,29.30
2023-04-16T04:04:58.991Z,28.30
2023-04-16T04:05:57.925Z,31.40
2023-04-16T04:06:58.961Z,30.60
2023-04-16T04:07:58.833Z,29.30
2023-04-16T04:08:58.761Z,25.50
2023-04-16T04:09:58.811Z,28.60
2023-04-16T04:10:57.844Z,28.00
2023-04-16T04:11:57.821Z,28.50
2023-04-16T04:12:58.747Z,31.50
2023-04-16T04:13:57.827Z,28.10
2023-04-16T04:14:57.766Z,31.90
2023-04-16T04:15:57.814Z,29.20
2023-04-16T04:16:58.734Z,31.90
2023-04-16T04:17:57.761Z,29.30
2023-04-16T04:18:59.640Z,31.30
2023-04-16T04:20:01.284Z,32.10
2023-04-16T04:20:57.723Z,28.60
2023-04-16T04:21:58.711Z,28.20
2023-04-16T04:22:57.739Z,27.90
2023-04-16T04:23:58.642Z,36.40
2023-04-16T04:24:58.576Z,32.40
2023-04-16T04:25:57.663Z,34.20
2023-04-16T04:26:58.585Z,29.70
2023-04-16T04:27:57.615Z,31.70
2023-04-16T04:28:57.651Z,33.10
2023-04-16T04:29:58.571Z,28.20
2023-04-16T04:30:58.512Z,28.50
2023-04-16T04:31:58.518Z,32.50
2023-04-16T04:32:58.639Z,33.10
2023-04-16T04:33:57.561Z,30.40
2023-04-16T04:34:57.512Z,31.40
2023-04-16T04:35:58.466Z,31.70
2023-04-16T04:36:58.411Z,31.60
2023-04-16T04:37:57.490Z,34.60
2023-04-16T04:38:57.472Z,33.50
2023-04-16T04:39:57.497Z,33.50
2023-04-16T04:40:58.379Z,33.30
2023-04-16T04:41:58.387Z,34.70
2023-04-16T04:42:57.474Z,33.30
2023-04-16T04:43:57.458Z,30.10
2023-04-16T04:44:58.380Z,34.30
2023-04-16T04:45:58.365Z,33.60
2023-04-16T04:46:57.437Z,33.30
2023-04-16T04:47:57.396Z,34.20
2023-04-16T04:48:57.364Z,36.40
2023-04-16T04:49:57.342Z,32.00
2023-04-16T04:50:57.313Z,32.70
2023-04-16T04:51:58.249Z,42.40
2023-04-16T04:52:57.352Z,39.30
2023-04-16T04:53:57.276Z,34.90
2023-04-16T04:54:57.267Z,33.90
2023-04-16T04:55:58.685Z,35.40
2023-04-16T04:56:58.767Z,39.10
2023-04-16T04:57:58.189Z,35.70
2023-04-16T04:58:57.232Z,33.90
2023-04-16T04:59:57.193Z,39.80
2023-04-16T05:00:58.160Z,35.70
2023-04-16T05:01:57.221Z,37.50
2023-04-16T05:02:57.232Z,33.60
2023-04-16T05:03:58.191Z,39.50
2023-04-16T05:04:57.226Z,33.40
2023-04-16T05:05:57.134Z,37.80
2023-04-16T05:06:57.130Z,35.00
2023-04-16T05:07:57.104Z,33.10
2023-04-16T05:08:58.079Z,37.30
2023-04-16T05:09:57.076Z,36.20
2023-04-16T05:10:57.069Z,35.00
2023-04-16T05:11:57.114Z,35.90
2023-04-16T05:12:57.132Z,37.70
2023-04-16T05:13:57.032Z,35.20
2023-04-16T05:14:57.976Z,36.60
2023-04-16T05:15:57.002Z,29.20
2023-04-16T05:16:57.009Z,35.60
2023-04-16T05:17:57.009Z,35.20
2023-04-16T05:18:56.971Z,32.40
2023-04-16T05:19:57.896Z,33.20
2023-04-16T05:20:56.962Z,37.30
2023-04-16T05:21:56.913Z,30.60
2023-04-16T05:22:56.947Z,31.50
2023-04-16T05:23:56.901Z,34.60
2023-04-16T05:24:56.892Z,31.10
2023-04-16T05:25:57.822Z,31.70
2023-04-16T05:26:56.871Z,34.00
2023-04-16T05:27:56.886Z,31.90
2023-04-16T05:28:56.828Z,30.80
2023-04-16T05:29:56.854Z,31.80
2023-04-16T05:30:57.783Z,34.40
2023-04-16T05:31:57.772Z,32.90
2023-04-16T05:32:56.867Z,32.60
2023-04-16T05:33:56.832Z,31.40
2023-04-16T05:34:56.796Z,34.80
2023-04-16T05:35:56.792Z,37.90
2023-04-16T05:36:57.653Z,36.10
2023-04-16T05:37:56.733Z,32.80
2023-04-16T05:38:56.727Z,32.80
2023-04-16T05:39:56.719Z,37.70
2023-04-16T05:40:56.713Z,33.50
2023-04-16T05:41:56.685Z,33.10
2023-04-16T05:42:57.729Z,29.00
2023-04-16T05:43:56.641Z,35.70
2023-04-16T05:44:56.668Z,33.80
2023-04-16T05:45:56.722Z,35.60
2023-04-16T05:46:56.605Z,32.70
2023-04-16T05:47:56.631Z,32.20
2023-04-16T05:48:57.492Z,32.00
2023-04-16T05:49:56.609Z,36.60
2023-04-16T05:50:56.578Z,34.30
2023-04-16T05:51:56.615Z,29.70
2023-04-16T05:52:56.727Z,36.80
2023-04-16T05:53:57.443Z,28.10
2023-04-16T05:54:57.445Z,29.20
2023-04-16T05:56:54.019Z,28.30
2023-04-16T05:57:53.961Z,29.50
2023-04-16T05:58:53.983Z,28.90
2023-04-16T05:59:53.944Z,32.60
2023-04-16T06:00:54.900Z,29.30
2023-04-16T06:01:54.040Z,29.90
2023-04-16T06:02:53.993Z,32.00
2023-04-16T06:03:54.054Z,27.90
2023-04-16T06:04:53.941Z,34.80
2023-04-16T06:05:53.942Z,31.20
2023-04-16T06:06:54.845Z,27.90
2023-04-16T06:07:53.925Z,29.10
2023-04-16T06:08:53.842Z,30.90
2023-04-16T06:09:53.815Z,30.10
2023-04-16T06:10:53.812Z,33.80
2023-04-16T06:11:55.415Z,25.70
2023-04-16T06:12:53.762Z,26.40
2023-04-16T06:13:53.750Z,30.10
2023-04-16T06:14:53.754Z,26.70
2023-04-16T06:15:53.783Z,27.20
2023-04-16T06:16:53.747Z,29.40
2023-04-16T06:17:54.695Z,26.30
2023-04-16T06:18:53.804Z,25.90
2023-04-16T06:19:53.717Z,26.40
2023-04-16T06:20:54.368Z,26.10
2023-04-16T06:21:53.635Z,28.00
2023-04-16T06:22:54.571Z,29.20
2023-04-16T06:23:53.628Z,34.00
2023-04-16T06:24:53.692Z,36.40
2023-04-16T06:25:53.558Z,50.80
2023-04-16T06:26:54.568Z,45.70
2023-04-16T06:27:54.534Z,33.90
2023-04-16T06:28:53.574Z,33.30
2023-04-16T06:29:53.610Z,25.90
2023-04-16T06:30:53.582Z,24.10
2023-04-16T06:31:53.669Z,24.10
2023-04-16T06:32:53.732Z,24.20
2023-04-16T06:33:54.436Z,26.40
2023-04-16T06:34:53.562Z,26.10
2023-04-16T06:35:53.510Z,28.50
2023-04-16T06:36:53.560Z,27.40
2023-04-16T06:37:53.442Z,27.00
2023-04-16T06:38:54.516Z,29.10
2023-04-16T06:39:53.427Z,31.90
2023-04-16T06:40:53.449Z,24.60
2023-04-16T06:41:53.487Z,27.90
2023-04-16T06:42:53.381Z,24.60
2023-04-16T06:43:54.299Z,24.10
2023-04-16T06:44:53.345Z,33.90
2023-04-16T06:45:53.462Z,26.30
2023-04-16T06:46:53.372Z,25.50
2023-04-16T06:47:53.343Z,24.10
2023-04-16T06:48:54.281Z,28.70
2023-04-16T06:49:53.305Z,26.60
2023-04-16T06:50:53.361Z,26.50
2023-04-16T06:51:53.389Z,29.90
2023-04-16T06:52:53.321Z,29.00
2023-04-16T06:53:53.233Z,29.60
2023-04-16T06:54:54.198Z,26.90
2023-04-16T06:55:53.356Z,26.80
2023-04-16T06:56:53.212Z,28.20
2023-04-16T06:57:53.336Z,25.40
2023-04-16T06:58:53.194Z,24.90
2023-04-16T06:59:53.172Z,24.50
2023-04-16T07:00:54.234Z,26.30
2023-04-16T07:01:53.260Z,28.60
2023-04-16T07:02:54.246Z,28.30
2023-04-16T07:03:53.490Z,30.00
2023-04-16T07:04:53.120Z,24.60
2023-04-16T07:05:54.052Z,29.00
2023-04-16T07:06:53.148Z,25.20
2023-04-16T07:07:53.339Z,26.10
2023-04-16T07:08:53.120Z,24.50
2023-04-16T07:09:53.884Z,28.40
2023-04-16T07:10:53.066Z,27.00
2023-04-16T07:11:54.036Z,25.20
2023-04-16T07:12:53.079Z,29.60
2023-04-16T07:13:53.030Z,29.20
2023-04-16T07:14:52.978Z,31.40
2023-04-16T07:15:53.077Z,28.80
2023-04-16T07:16:54.106Z,31.10
2023-04-16T07:17:53.061Z,29.90
2023-04-16T07:18:52.960Z,29.30
2023-04-16T07:19:52.907Z,29.50
2023-04-16T07:20:53.070Z,31.40
2023-04-16T07:21:53.848Z,34.90
2023-04-16T07:22:52.976Z,30.80
2023-04-16T07:23:52.891Z,31.90
2023-04-16T07:24:52.840Z,26.50
2023-04-16T07:25:53.687Z,26.60
2023-04-16T07:26:53.825Z,25.40
2023-04-16T07:27:52.864Z,29.00
2023-04-16T07:28:53.075Z,28.70
2023-04-16T07:29:53.156Z,32.50
2023-04-16T07:30:52.879Z,29.50
2023-04-16T07:31:52.851Z,27.80
2023-04-16T07:32:53.753Z,28.60
2023-04-16T07:33:52.895Z,28.90
2023-04-16T07:34:52.793Z,24.90
2023-04-16T07:35:52.799Z,26.20
2023-04-16T07:36:52.712Z,28.30
2023-04-16T07:37:52.851Z,26.00
2023-04-16T07:38:53.614Z,25.60
2023-04-16T07:39:53.150Z,25.00
2023-04-16T07:40:52.769Z,28.90
2023-04-16T07:41:52.692Z,29.80
2023-04-16T07:42:52.639Z,23.00
2023-04-16T07:43:52.630Z,24.00
2023-04-16T07:44:53.580Z,30.90
2023-04-16T07:45:52.696Z,26.20
2023-04-16T07:46:52.671Z,30.70
2023-04-16T07:47:52.587Z,27.80
2023-04-16T07:48:52.646Z,32.30
2023-04-16T07:49:53.456Z,28.60
2023-04-16T07:50:52.514Z,30.20
2023-04-16T07:51:52.509Z,24.20
2023-04-16T07:52:52.536Z,26.10
2023-04-16T07:53:52.590Z,25.10
2023-04-16T07:54:52.468Z,28.50
2023-04-16T07:55:53.395Z,29.10
2023-04-16T07:56:52.437Z,23.60
2023-04-16T07:57:52.428Z,24.60
2023-04-16T07:58:52.394Z,28.00
2023-04-16T07:59:52.494Z,28.30
2023-04-16T08:00:53.496Z,24.50
2023-04-16T08:01:52.586Z,24.50
2023-04-16T08:02:52.568Z,26.40
2023-04-16T08:03:52.460Z,31.50
2023-04-16T08:04:52.707Z,24.70
2023-04-16T08:05:53.307Z,24.90
2023-04-16T08:06:52.298Z,23.90
2023-04-16T08:07:52.309Z,24.00
2023-04-16T08:08:52.380Z,29.50
2023-04-16T08:09:52.309Z,27.30
2023-04-16T08:10:52.381Z,26.70
2023-04-16T08:11:53.225Z,23.60
2023-04-16T08:12:52.354Z,29.90
2023-04-16T08:13:52.252Z,25.90
2023-04-16T08:14:52.239Z,28.90
2023-04-16T08:15:52.438Z,27.00
2023-04-16T08:16:52.316Z,26.20
2023-04-16T08:17:53.241Z,30.10
2023-04-16T08:18:52.385Z,25.90
2023-04-16T08:19:52.141Z,23.80
2023-04-16T08:20:52.397Z,26.70
2023-04-16T08:21:52.149Z,22.40
2023-04-16T08:22:52.104Z,24.30
2023-04-16T08:23:53.061Z,24.20
2023-04-16T08:24:52.358Z,21.40
2023-04-16T08:25:53.105Z,20.90
2023-04-16T08:26:52.058Z,20.70
2023-04-16T08:27:52.085Z,22.80
2023-04-16T08:28:52.043Z,20.20
2023-04-16T08:29:52.972Z,21.30
2023-04-16T08:30:52.088Z,22.50
2023-04-16T08:31:52.025Z,24.20
2023-04-16T08:32:52.057Z,32.30
2023-04-16T08:33:52.118Z,25.50
2023-04-16T08:34:52.930Z,40.70
2023-04-16T08:35:51.954Z,29.50
2023-04-16T08:36:51.960Z,25.90
2023-04-16T08:37:51.929Z,23.10
2023-04-16T08:38:52.082Z,21.30
2023-04-16T08:39:52.956Z,21.90
2023-04-16T08:40:51.882Z,21.90
2023-04-16T08:41:52.025Z,29.30
2023-04-16T08:42:52.065Z,22.60
2023-04-16T08:43:51.974Z,22.40
2023-04-16T08:44:52.801Z,23.40
2023-04-16T08:45:51.888Z,23.10
2023-04-16T08:46:51.858Z,20.10
2023-04-16T08:47:51.951Z,21.30
2023-04-16T08:48:51.799Z,25.70
2023-04-16T08:49:52.702Z,22.60
2023-04-16T08:50:51.913Z,20.50
2023-04-16T08:51:51.776Z,21.00
2023-04-16T08:52:51.877Z,23.90
2023-04-16T08:53:51.750Z,22.70
2023-04-16T08:54:56.594Z,20.00
2023-04-16T08:55:51.750Z,22.30
2023-04-16T08:56:51.964Z,25.70
2023-04-16T08:57:51.700Z,21.60
2023-04-16T08:58:51.662Z,22.20
2023-04-16T08:59:51.658Z,22.50
2023-04-16T09:00:52.613Z,23.90
2023-04-16T09:01:51.748Z,19.90
2023-04-16T09:02:51.832Z,19.80
2023-04-16T09:03:51.804Z,19.30
2023-04-16T09:04:51.828Z,21.70
2023-04-16T09:05:52.496Z,19.80
2023-04-16T09:06:51.671Z,20.40
2023-04-16T09:07:51.524Z,22.10
2023-04-16T09:08:51.536Z,20.40
2023-04-16T09:09:51.566Z,19.40
2023-04-16T09:10:51.601Z,20.60
2023-04-16T09:11:53.405Z,19.80
2023-04-16T09:12:51.450Z,22.40
2023-04-16T09:13:51.476Z,21.90
2023-04-16T09:14:51.443Z,20.50
2023-04-16T09:15:51.604Z,18.40
2023-04-16T09:16:52.373Z,25.50
2023-04-16T09:17:51.530Z,20.10
2023-04-16T09:18:51.433Z,19.20
2023-04-16T09:19:51.420Z,19.70
2023-04-16T09:20:51.454Z,18.10
2023-04-16T09:22:20.051Z,24.20
2023-04-16T09:22:51.467Z,19.90
2023-04-16T09:23:51.342Z,15.90
2023-04-16T09:24:52.272Z,22.90
2023-04-16T09:25:51.439Z,17.30
2023-04-16T09:26:52.233Z,16.40
2023-04-16T09:27:51.419Z,20.50
2023-04-16T09:28:51.282Z,16.50
2023-04-16T09:29:51.235Z,20.30
2023-04-16T09:30:51.241Z,18.30
2023-04-16T09:31:52.300Z,20.50
2023-04-16T09:32:51.283Z,16.30
2023-04-16T09:33:51.247Z,17.70
2023-04-16T09:34:51.200Z,16.60
2023-04-16T09:35:51.299Z,18.10
2023-04-16T09:36:51.247Z,17.30
2023-04-16T09:37:52.159Z,16.40
2023-04-16T09:38:51.320Z,17.40
2023-04-16T09:39:51.157Z,21.80
2023-04-16T09:40:51.118Z,18.80
2023-04-16T09:41:51.130Z,18.00
2023-04-16T09:42:52.050Z,17.80
2023-04-16T09:43:51.074Z,19.60
2023-04-16T09:44:51.093Z,19.30
2023-04-16T09:45:51.343Z,17.40
2023-04-16T09:46:51.065Z,18.00
2023-04-16T09:47:51.209Z,18.20
2023-04-16T09:48:52.006Z,17.50
2023-04-16T09:49:51.009Z,17.50
2023-04-16T09:50:50.980Z,16.60
2023-04-16T09:51:51.004Z,17.60
2023-04-16T09:52:51.139Z,17.90
2023-04-16T09:53:51.935Z,19.50
2023-04-16T09:54:50.960Z,22.10
2023-04-16T09:55:51.641Z,18.30
2023-04-16T09:56:50.976Z,17.50
2023-04-16T09:57:50.930Z,19.20
2023-04-16T09:58:51.865Z,21.10
2023-04-16T09:59:50.891Z,18.70
2023-04-16T10:00:50.906Z,18.90
2023-04-16T10:01:51.020Z,17.80
2023-04-16T10:02:50.923Z,16.50
2023-04-16T10:03:51.138Z,16.60
2023-04-16T10:04:51.842Z,17.90
2023-04-16T10:05:51.028Z,19.20
2023-04-16T10:06:50.786Z,19.10
2023-04-16T10:07:50.783Z,22.00
2023-04-16T10:08:50.883Z,18.20
2023-04-16T10:09:50.848Z,21.30
2023-04-16T10:10:51.675Z,19.40
2023-04-16T10:11:50.761Z,19.30
2023-04-16T10:12:50.984Z,19.00
2023-04-16T10:13:50.713Z,21.50
2023-04-16T10:14:50.787Z,17.60
2023-04-16T10:15:51.650Z,21.50
2023-04-16T10:16:50.746Z,21.20
2023-04-16T10:17:50.718Z,19.50
2023-04-16T10:18:50.641Z,20.10
2023-04-16T10:19:50.627Z,20.90
2023-04-16T10:20:50.683Z,23.50
2023-04-16T10:21:51.580Z,22.70
2023-04-16T10:22:50.702Z,22.00
2023-04-16T10:23:50.563Z,21.40
2023-04-16T10:24:50.695Z,22.70
2023-04-16T10:25:50.616Z,25.50
2023-04-16T10:26:51.514Z,20.90
2023-04-16T10:27:50.545Z,23.70
2023-04-16T10:28:50.579Z,22.20
2023-04-16T10:29:50.605Z,19.90
2023-04-16T10:30:50.557Z,25.30
2023-04-16T10:31:50.482Z,25.30
2023-04-16T10:32:51.442Z,25.30
2023-04-16T10:33:50.471Z,21.70
2023-04-16T10:34:50.466Z,19.60
2023-04-16T10:36:01.317Z,20.60
2023-04-16T10:36:52.024Z,24.70
2023-04-16T10:37:51.340Z,23.60
2023-04-16T10:38:50.524Z,22.30
2023-04-16T10:39:50.411Z,24.30
2023-04-16T10:40:50.382Z,23.30
2023-04-16T10:41:50.409Z,26.00
2023-04-16T10:42:51.267Z,23.40
2023-04-16T10:43:50.342Z,22.20
2023-04-16T10:44:50.443Z,23.80
2023-04-16T10:45:50.318Z,25.50
2023-04-16T10:46:50.431Z,25.20
2023-04-16T10:47:50.505Z,22.90
2023-04-16T10:48:51.255Z,26.70
2023-04-16T10:49:50.275Z,23.50
2023-04-16T10:50:51.953Z,25.40
2023-04-16T10:51:50.226Z,24.30
2023-04-16T10:52:50.278Z,24.70
2023-04-16T10:53:51.121Z,24.90
2023-04-16T10:54:50.241Z,27.50
2023-04-16T10:55:51.063Z,26.20
2023-04-16T10:56:50.212Z,40.50
2023-04-16T10:57:50.242Z,46.30
2023-04-16T10:58:50.196Z,30.10
2023-04-16T10:59:51.083Z,25.20
2023-04-16T11:00:50.088Z,23.80
2023-04-16T11:01:50.139Z,23.80
2023-04-16T11:02:50.189Z,21.00
2023-04-16T11:03:50.328Z,23.20
2023-04-16T11:04:50.272Z,24.70
2023-04-16T11:05:51.011Z,23.60
2023-04-16T11:06:50.109Z,26.20
2023-04-16T11:07:50.180Z,24.90
2023-04-16T11:08:54.721Z,21.70
2023-04-16T11:09:51.516Z,25.40
2023-04-16T11:10:50.934Z,23.40
2023-04-16T11:11:50.153Z,23.60
2023-04-16T11:12:50.015Z,22.30
2023-04-16T11:13:49.940Z,22.80
2023-04-16T11:14:49.986Z,21.70
2023-04-16T11:15:50.038Z,21.60
2023-04-16T11:16:50.832Z,21.70
2023-04-16T11:17:49.894Z,22.00
2023-04-16T11:18:51.783Z,19.70
2023-04-16T11:19:49.848Z,20.90
2023-04-16T11:21:21.701Z,19.00
2023-04-16T11:21:49.845Z,19.50
2023-04-16T11:22:50.755Z,19.50
2023-04-16T11:23:49.858Z,20.10
2023-04-16T11:24:49.801Z,19.70
2023-04-16T11:25:49.800Z,20.70
2023-04-16T11:26:49.801Z,17.70
2023-04-16T11:27:49.756Z,19.10
2023-04-16T11:28:50.718Z,17.70
2023-04-16T11:29:49.749Z,18.70
2023-04-16T11:30:49.763Z,18.90
2023-04-16T11:31:49.938Z,17.70
2023-04-16T11:32:49.740Z,17.50
2023-04-16T11:33:49.716Z,17.70
2023-04-16T11:34:50.626Z,17.30
2023-04-16T11:35:49.696Z,17.50
2023-04-16T11:36:49.649Z,18.40
2023-04-16T11:37:49.714Z,19.60
2023-04-16T11:38:49.636Z,17.20
2023-04-16T11:39:50.562Z,20.20
2023-04-16T11:40:49.743Z,18.90
2023-04-16T11:41:49.568Z,17.40
2023-04-16T11:42:49.608Z,16.20
2023-04-16T11:43:49.609Z,20.20
2023-04-16T11:44:50.604Z,16.70
2023-04-16T11:45:49.527Z,15.40
2023-04-16T11:46:49.660Z,16.20
2023-04-16T11:47:49.520Z,15.90
2023-04-16T11:48:49.723Z,15.90
2023-04-16T11:49:50.459Z,15.80
2023-04-16T11:50:49.485Z,15.90
2023-04-16T11:51:49.456Z,14.90
2023-04-16T11:52:49.551Z,16.70
2023-04-16T11:53:49.425Z,16.30
2023-04-16T11:54:50.388Z,15.80
2023-04-16T11:56:46.901Z,14.80
2023-04-16T11:57:46.885Z,15.50
2023-04-16T11:58:46.835Z,15.40
2023-04-16T12:00:02.532Z,16.70
2023-04-16T12:00:49.215Z,15.60
2023-04-16T12:01:46.829Z,16.40
2023-04-16T12:02:46.916Z,16.20
2023-04-16T12:03:47.146Z,18.20
2023-04-16T12:04:46.877Z,15.00
2023-04-16T12:05:46.754Z,15.40
2023-04-16T12:06:47.869Z,15.30
2023-04-16T12:07:46.703Z,13.90
2023-04-16T12:08:46.693Z,14.40
2023-04-16T12:09:46.733Z,14.50
2023-04-16T12:10:46.683Z,15.10
2023-04-16T12:11:47.657Z,16.00
2023-04-16T12:12:46.652Z,15.90
2023-04-16T12:13:46.663Z,14.10
2023-04-16T12:14:46.612Z,23.40
2023-04-16T12:15:46.584Z,14.50
2023-04-16T12:16:47.787Z,15.80
2023-04-16T12:17:46.586Z,13.70
2023-04-16T12:18:46.616Z,13.50
2023-04-16T12:19:46.560Z,13.40
2023-04-16T12:20:46.626Z,12.50
2023-04-16T12:21:46.528Z,12.60
2023-04-16T12:22:47.515Z,12.80
2023-04-16T12:23:46.548Z,15.70
2023-04-16T12:24:46.507Z,11.70
2023-04-16T12:25:46.495Z,15.10
2023-04-16T12:26:46.525Z,14.90
2023-04-16T12:27:46.458Z,14.50
2023-04-16T12:28:47.631Z,13.20
2023-04-16T12:29:46.414Z,12.60
2023-04-16T12:30:46.490Z,11.60
2023-04-16T12:31:46.389Z,12.40
2023-04-16T12:32:46.468Z,12.40
2023-04-16T12:33:46.392Z,12.60
2023-04-16T12:34:48.878Z,13.40
2023-04-16T12:35:46.352Z,11.50
2023-04-16T12:36:48.005Z,11.10
2023-04-16T12:37:46.391Z,11.70
2023-04-16T12:38:46.344Z,9.80
2023-04-16T12:39:48.163Z,11.90
2023-04-16T12:40:46.328Z,11.50
2023-04-16T12:41:46.321Z,10.80
2023-04-16T12:42:46.252Z,12.00
2023-04-16T12:43:46.275Z,10.90
2023-04-16T12:44:47.235Z,11.20
2023-04-16T12:45:46.277Z,12.60
2023-04-16T12:46:46.389Z,10.70
2023-04-16T12:47:46.319Z,11.70
2023-04-16T12:48:46.236Z,11.10
2023-04-16T12:49:47.124Z,13.00
2023-04-16T12:50:46.202Z,11.70
2023-04-16T12:51:46.135Z,11.00
2023-04-16T12:52:46.136Z,14.50
2023-04-16T12:53:46.129Z,10.60